createdAt,value
2023-05-16T00:02:11.148Z,99500.97
2023-05-16T00:04:38.644Z,99506.48
2023-05-16T00:07:05.709Z,99508.96
2023-05-16T00:09:32.756Z,99507.73
2023-05-16T00:12:00.087Z,99507.73
2023-05-16T00:14:28.078Z,99511.29
2023-05-16T00:16:58.104Z,99509.36
2023-05-16T00:19:26.335Z,99509.38
2023-05-16T00:21:53.322Z,99511.12
2023-05-16T00:24:20.265Z,99511.48
2023-05-16T00:26:47.225Z,99510.09
2023-05-16T00:29:14.307Z,99511.55
2023-05-16T00:31:41.476Z,99513.84
2023-05-16T00:34:08.690Z,99512.45
2023-05-16T00:36:36.029Z,99510.52
2023-05-16T00:39:03.951Z,99509.79
2023-05-16T00:41:31.387Z,99508.24
2023-05-16T00:43:58.536Z,99509.10
2023-05-16T00:46:25.558Z,99507.30
2023-05-16T00:48:52.787Z,99502.02
2023-05-16T00:51:20.095Z,99505.73
2023-05-16T00:53:48.142Z,99507.69
2023-05-16T00:56:16.452Z,99497.80
2023-05-16T00:58:43.880Z,99499.60
2023-05-16T01:01:11.373Z,99496.25
2023-05-16T01:03:39.139Z,99494.48
2023-05-16T01:06:06.427Z,99494.13
2023-05-16T01:08:33.665Z,99498.37
2023-05-16T01:11:19.629Z,99498.01
2023-05-16T01:14:21.127Z,99502.78
2023-05-16T01:16:56.924Z,99510.60
2023-05-16T01:19:30.719Z,99513.41
2023-05-16T01:22:16.040Z,99517.64
2023-05-16T01:25:17.493Z,99523.13
2023-05-16T01:27:45.453Z,99518.34
2023-05-16T01:30:17.706Z,99523.48
2023-05-16T01:32:45.082Z,99525.39
2023-05-16T01:35:15.745Z,99526.73
2023-05-16T01:37:47.577Z,99535.02
2023-05-16T01:40:30.596Z,99544.48
2023-05-16T01:43:03.969Z,99548.54
2023-05-16T01:45:34.601Z,99547.13
2023-05-16T01:48:04.883Z,99546.41
2023-05-16T01:50:36.452Z,99548.00
2023-05-16T01:53:11.861Z,99544.83
2023-05-16T01:55:52.133Z,99549.60
2023-05-16T01:58:23.203Z,99553.50
2023-05-16T02:00:53.399Z,99556.91
2023-05-16T02:03:20.435Z,99553.59
2023-05-16T02:05:47.534Z,99553.55
2023-05-16T02:08:14.666Z,99551.58
2023-05-16T02:10:41.690Z,99551.48
2023-05-16T02:13:09.022Z,99552.30
2023-05-16T02:15:36.116Z,99544.95
2023-05-16T02:18:03.176Z,99545.11
2023-05-16T02:20:30.416Z,99549.30
2023-05-16T02:22:57.391Z,99556.48
2023-05-16T02:25:24.708Z,99565.72
2023-05-16T02:27:51.968Z,99566.89
2023-05-16T02:30:19.127Z,99565.08
2023-05-16T02:32:46.202Z,99568.71
2023-05-16T02:35:13.359Z,99573.09
2023-05-16T02:37:41.246Z,99575.67
2023-05-16T02:40:08.896Z,99574.60
2023-05-16T02:42:35.939Z,99568.90
2023-05-16T02:45:03.091Z,99568.13
2023-05-16T02:47:30.487Z,99573.70
2023-05-16T02:49:57.625Z,99574.55
2023-05-16T02:52:24.767Z,99574.13
2023-05-16T02:55:04.754Z,99577.05
2023-05-16T02:57:38.946Z,99577.33
2023-05-16T03:00:06.998Z,99577.98
2023-05-16T03:02:34.229Z,99580.42
2023-05-16T03:05:01.540Z,99583.04
2023-05-16T03:07:28.561Z,99580.89
2023-05-16T03:09:55.880Z,99580.83
2023-05-16T03:12:22.859Z,99579.90
2023-05-16T03:14:51.342Z,99582.89
2023-05-16T03:17:18.336Z,99576.35
2023-05-16T03:19:45.513Z,99581.65
2023-05-16T03:22:12.958Z,99585.52
2023-05-16T03:24:40.026Z,99587.05
2023-05-16T03:27:07.701Z,99590.56
2023-05-16T03:29:34.857Z,99589.61
2023-05-16T03:32:02.179Z,99590.34
2023-05-16T03:34:29.286Z,99591.44
2023-05-16T03:36:57.129Z,99591.45
2023-05-16T03:39:24.091Z,99585.09
2023-05-16T03:41:51.908Z,99584.43
2023-05-16T03:44:19.039Z,99584.98
2023-05-16T03:46:46.060Z,99586.20
2023-05-16T03:49:13.028Z,99587.22
2023-05-16T03:51:40.013Z,99591.00
2023-05-16T03:54:06.985Z,99590.71
2023-05-16T03:56:34.048Z,99594.83
2023-05-16T03:59:01.026Z,99596.79
2023-05-16T04:01:29.308Z,99595.79
2023-05-16T04:03:56.326Z,99596.54
2023-05-16T04:06:23.363Z,99597.30
2023-05-16T04:08:50.549Z,99598.77
2023-05-16T04:11:17.726Z,99597.41
2023-05-16T04:13:44.966Z,99596.29
2023-05-16T04:16:12.629Z,99596.89
2023-05-16T04:18:39.673Z,99602.66
2023-05-16T04:21:07.385Z,99602.77
2023-05-16T04:23:34.530Z,99603.37
2023-05-16T04:26:04.330Z,99598.84
2023-05-16T04:28:31.542Z,99601.40
2023-05-16T04:30:58.699Z,99604.02
2023-05-16T04:33:25.862Z,99606.10
2023-05-16T04:35:54.524Z,99606.58
2023-05-16T04:38:22.238Z,99600.50
2023-05-16T04:40:52.626Z,99596.02
2023-05-16T04:43:20.023Z,99598.02
2023-05-16T04:45:47.284Z,99598.08
2023-05-16T04:48:15.062Z,99599.61
2023-05-16T04:50:42.140Z,99599.14
2023-05-16T04:53:09.664Z,99609.49
2023-05-16T04:55:36.976Z,99617.19
2023-05-16T04:58:04.088Z,99622.23
2023-05-16T05:00:31.689Z,99621.11
2023-05-16T05:02:59.725Z,99623.70
2023-05-16T05:05:28.281Z,99628.98
2023-05-16T05:07:59.035Z,99625.04
2023-05-16T05:10:27.489Z,99621.77
2023-05-16T05:12:56.351Z,99620.98
2023-05-16T05:15:26.471Z,99619.48
2023-05-16T05:17:53.961Z,99623.48
2023-05-16T05:20:21.382Z,99626.92
2023-05-16T05:22:48.473Z,99629.17
2023-05-16T05:25:15.856Z,99627.00
2023-05-16T05:27:45.889Z,99632.59
2023-05-16T05:30:15.674Z,99630.91
2023-05-16T06:07:07.726Z,99692.73
2023-05-16T06:21:37.007Z,99723.23
2023-05-16T06:31:47.190Z,99746.53
2023-05-16T06:34:14.314Z,99749.03
2023-05-16T06:36:41.615Z,99753.12
2023-05-16T06:39:08.577Z,99759.92
2023-05-16T06:41:36.436Z,99758.77
2023-05-16T06:53:20.091Z,99775.52
2023-05-16T06:56:05.863Z,99778.70
2023-05-16T07:04:17.328Z,99787.61
2023-05-16T07:08:30.655Z,99793.41
2023-05-16T07:11:12.220Z,99808.56
2023-05-16T07:13:39.396Z,99814.52
2023-05-16T07:16:08.173Z,99817.09
2023-05-16T07:18:35.782Z,99827.67
2023-05-16T07:21:03.073Z,99838.32
2023-05-16T07:23:30.640Z,99840.39
2023-05-16T07:25:58.964Z,99842.26
2023-05-16T07:28:26.620Z,99846.42
2023-05-16T07:30:54.441Z,99849.23
2023-05-16T07:33:21.730Z,99855.18
2023-05-16T07:35:49.757Z,99857.14
2023-05-16T07:38:16.912Z,99863.55
2023-05-16T07:40:44.164Z,99871.04
2023-05-16T07:43:11.374Z,99874.19
2023-05-16T07:45:38.788Z,99877.70
2023-05-16T07:48:06.322Z,99889.60
2023-05-16T07:50:33.685Z,99885.62
2023-05-16T07:53:01.401Z,99878.77
2023-05-16T07:55:28.851Z,99874.90
2023-05-16T07:57:56.461Z,99878.17
2023-05-16T08:00:23.863Z,99883.39
2023-05-16T08:02:51.638Z,99885.46
2023-05-16T08:05:18.984Z,99884.70
2023-05-16T08:07:46.302Z,99885.46
2023-05-16T08:10:13.715Z,99889.67
2023-05-16T08:12:41.193Z,99893.60
2023-05-16T08:15:09.305Z,99898.98
2023-05-16T08:17:36.950Z,99897.19
2023-05-16T08:20:05.565Z,99898.63
2023-05-16T08:22:33.368Z,99897.77
2023-05-16T08:25:00.726Z,99898.30
2023-05-16T08:27:28.716Z,99896.30
2023-05-16T08:29:55.806Z,99893.29
2023-05-16T08:32:25.344Z,99890.89
2023-05-16T08:34:52.506Z,99895.91
2023-05-16T08:37:19.722Z,99896.11
2023-05-16T08:39:46.867Z,99893.06
2023-05-16T08:42:14.772Z,99897.84
2023-05-16T08:44:42.167Z,99898.20
2023-05-16T08:47:18.678Z,99898.95
2023-05-16T08:50:11.867Z,99895.92
2023-05-16T08:56:29.366Z,99891.98
2023-05-16T09:08:09.859Z,99910.98
2023-05-16T09:15:58.257Z,99915.61
2023-05-16T09:22:58.227Z,99916.70
2023-05-16T09:25:31.752Z,99922.39
2023-05-16T09:28:01.740Z,99934.27
2023-05-16T09:30:32.325Z,99940.00
2023-05-16T09:32:59.722Z,99947.00
2023-05-16T09:35:43.266Z,99951.83
2023-05-16T09:38:17.751Z,99952.23
2023-05-16T09:40:46.454Z,99958.27
2023-05-16T09:43:18.019Z,99960.77
2023-05-16T09:45:53.944Z,99962.48
2023-05-16T09:48:23.428Z,99968.90
2023-05-16T09:50:54.376Z,99974.70
2023-05-16T09:53:30.606Z,99975.91
2023-05-16T09:56:02.060Z,99976.45
2023-05-16T09:58:38.777Z,99973.19
2023-05-16T10:01:13.136Z,99974.67
2023-05-16T10:03:42.288Z,99978.27
2023-05-16T10:06:12.572Z,99986.95
2023-05-16T10:08:42.548Z,99997.71
2023-05-16T10:11:10.906Z,100001.35
2023-05-16T10:13:38.807Z,100003.59
2023-05-16T10:16:10.989Z,100006.20
2023-05-16T10:18:39.772Z,100010.04
2023-05-16T10:21:15.658Z,100015.33
2023-05-16T10:23:47.277Z,100016.39
2023-05-16T10:26:17.103Z,100011.57
2023-05-16T10:28:45.183Z,100016.00
2023-05-16T10:31:14.292Z,100014.41
2023-05-16T10:33:41.962Z,100019.27
2023-05-16T10:36:10.561Z,100019.69
2023-05-16T10:38:39.092Z,100024.30
2023-05-16T10:41:08.373Z,100027.44
2023-05-16T10:43:36.441Z,100032.90
2023-05-16T10:46:07.167Z,100037.55
2023-05-16T10:48:36.611Z,100034.41
2023-05-16T10:51:24.442Z,100032.98
2023-05-16T10:53:52.829Z,100027.02
2023-05-16T10:56:24.796Z,100019.41
2023-05-16T10:58:54.162Z,100016.99
2023-05-16T11:01:28.937Z,100023.58
2023-05-16T11:03:59.595Z,100027.09
2023-05-16T11:06:28.364Z,100024.39
2023-05-16T11:09:11.431Z,100027.58
2023-05-16T11:11:46.324Z,100030.98
2023-05-16T11:14:22.872Z,100037.38
2023-05-16T11:17:15.433Z,100037.00
2023-05-16T11:19:45.181Z,100042.70
2023-05-16T11:22:41.993Z,100042.16
2023-05-16T11:25:10.708Z,100038.96
2023-05-16T11:27:47.026Z,100040.19
2023-05-16T11:30:17.360Z,100049.64
2023-05-16T11:32:46.480Z,100058.23
2023-05-16T11:35:16.472Z,100068.06
2023-05-16T11:37:46.512Z,100066.46
2023-05-16T11:40:16.805Z,100062.57
2023-05-16T11:42:47.501Z,100056.73
2023-05-16T11:45:17.002Z,100052.33
2023-05-16T11:47:45.932Z,100049.67
2023-05-16T11:50:21.960Z,100058.09
2023-05-16T11:52:54.040Z,100065.25
2023-05-16T11:55:36.807Z,100071.48
2023-05-16T11:58:08.456Z,100072.70
2023-05-16T12:00:35.745Z,100070.73
2023-05-16T12:03:05.031Z,100072.90
2023-05-16T12:05:34.336Z,100073.45
2023-05-16T12:08:04.337Z,100066.86
2023-05-16T12:10:36.208Z,100073.16
2023-05-16T12:13:03.979Z,100076.02
2023-05-16T12:15:31.724Z,100073.98
2023-05-16T12:17:59.320Z,100066.77
2023-05-16T12:20:26.673Z,100068.00
2023-05-16T12:22:57.745Z,100063.88
2023-05-16T12:25:32.738Z,100062.57
2023-05-16T12:28:03.914Z,100065.18
2023-05-16T12:30:32.674Z,100065.64
2023-05-16T12:33:08.251Z,100068.92
2023-05-16T12:35:38.766Z,100069.02
2023-05-16T12:38:08.429Z,100064.02
2023-05-16T12:40:41.480Z,100069.95
2023-05-16T12:43:22.915Z,100070.70
2023-05-16T12:45:55.031Z,100066.98
2023-05-16T12:48:23.871Z,100069.67
2023-05-16T12:50:51.080Z,100069.85
2023-05-16T12:53:19.097Z,100069.70
2023-05-16T12:55:46.583Z,100062.23
2023-05-16T12:58:14.125Z,100065.64
2023-05-16T13:00:41.409Z,100067.08
2023-05-16T13:03:10.106Z,100067.98
2023-05-16T13:05:37.438Z,100068.88
2023-05-16T13:08:04.965Z,100066.36
2023-05-16T13:10:32.062Z,100062.06
2023-05-16T13:12:59.769Z,100062.22
2023-05-16T13:15:27.442Z,100067.21
2023-05-16T13:17:55.065Z,100065.77
2023-05-16T13:20:22.443Z,100069.67
2023-05-16T13:22:49.900Z,100073.23
2023-05-16T13:25:17.657Z,100075.21
2023-05-16T13:27:44.813Z,100080.59
2023-05-16T13:30:12.244Z,100077.22
2023-05-16T13:32:39.576Z,100085.11
2023-05-16T13:35:07.309Z,100084.40
2023-05-16T13:37:34.874Z,100085.84
2023-05-16T13:40:02.312Z,100085.68
2023-05-16T13:42:29.525Z,100085.33
2023-05-16T13:44:56.766Z,100084.79
2023-05-16T13:47:23.836Z,100085.14
2023-05-16T13:49:51.194Z,100085.15
2023-05-16T13:52:18.596Z,100086.03
2023-05-16T13:54:46.144Z,100087.65
2023-05-16T13:57:13.321Z,100082.28
2023-05-16T14:02:10.977Z,100089.39
2023-05-16T14:04:38.572Z,100083.48
2023-05-16T14:07:05.683Z,100086.85
2023-05-16T14:09:34.772Z,100088.98
2023-05-16T14:12:04.718Z,100088.27
2023-05-16T14:14:31.955Z,100089.14
2023-05-16T14:16:59.300Z,100084.52
2023-05-16T14:19:26.776Z,100083.98
2023-05-16T14:21:54.703Z,100082.36
2023-05-16T14:24:22.375Z,100084.46
2023-05-16T14:26:56.972Z,100080.33
2023-05-16T14:29:25.009Z,100077.08
2023-05-16T14:31:52.937Z,100080.11
2023-05-16T14:34:21.937Z,100074.92
2023-05-16T14:36:49.230Z,100077.10
2023-05-16T14:39:16.378Z,100078.02
2023-05-16T14:41:43.519Z,100070.69
2023-05-16T14:44:10.659Z,100078.39
2023-05-16T14:46:42.077Z,100081.65
2023-05-16T14:49:09.758Z,100078.98
2023-05-16T14:51:42.205Z,100079.34
2023-05-16T14:54:22.134Z,100078.08
2023-05-16T14:56:50.228Z,100077.35
2023-05-16T14:59:17.390Z,100078.95
2023-05-16T15:01:44.911Z,100073.78
2023-05-16T15:04:12.155Z,100076.29
2023-05-16T15:06:42.549Z,100080.23
2023-05-16T15:09:11.668Z,100077.90
2023-05-16T15:11:41.747Z,100078.79
2023-05-16T15:14:12.415Z,100078.26
2023-05-16T15:16:39.771Z,100084.15
2023-05-16T15:19:09.578Z,100083.79
2023-05-16T15:21:37.100Z,100080.59
2023-05-16T15:24:04.681Z,100080.25
2023-05-16T15:26:33.933Z,100077.02
2023-05-16T15:29:05.788Z,100071.86
2023-05-16T15:31:33.305Z,100076.14
2023-05-16T15:34:01.204Z,100076.33
2023-05-16T15:36:31.632Z,100082.42
2023-05-16T15:39:04.900Z,100082.06
2023-05-16T15:41:56.940Z,100079.39
2023-05-16T15:44:23.889Z,100077.96
2023-05-16T15:46:51.266Z,100073.48
2023-05-16T15:49:21.926Z,100072.06
2023-05-16T15:51:50.868Z,100076.55
2023-05-16T15:54:18.716Z,100077.80
2023-05-16T15:56:48.764Z,100075.49
2023-05-16T15:59:17.040Z,100072.46
2023-05-16T16:01:48.880Z,100068.35
2023-05-16T16:04:23.373Z,100066.58
2023-05-16T16:06:54.428Z,100064.60
2023-05-16T16:09:21.659Z,100064.97
2023-05-16T16:11:50.162Z,100060.67
2023-05-16T16:14:19.522Z,100058.17
2023-05-16T16:16:47.511Z,100058.35
2023-05-16T16:19:15.294Z,100062.12
2023-05-16T16:21:45.355Z,100058.55
2023-05-16T16:24:15.673Z,100061.05
2023-05-16T16:26:43.376Z,100059.07
2023-05-16T16:29:14.908Z,100055.15
2023-05-16T16:31:41.988Z,100059.43
2023-05-16T16:34:09.559Z,100061.40
2023-05-16T16:36:39.035Z,100063.19
2023-05-16T16:39:07.532Z,100061.58
2023-05-16T16:41:34.677Z,100066.94
2023-05-16T16:44:02.213Z,100066.77
2023-05-16T16:46:32.962Z,100067.65
2023-05-16T16:49:01.588Z,100066.90
2023-05-16T16:51:35.532Z,100066.89
2023-05-16T16:54:05.441Z,100067.77
2023-05-16T16:56:36.012Z,100071.70
2023-05-16T16:59:03.240Z,100072.77
2023-05-16T17:02:08.378Z,100066.88
2023-05-16T17:05:23.462Z,100069.20
2023-05-16T17:08:42.945Z,100067.95
2023-05-16T17:12:48.595Z,100069.18
2023-05-16T17:16:35.761Z,100070.77
2023-05-16T17:20:03.685Z,100069.70
2023-05-16T17:26:43.637Z,100073.45
2023-05-16T17:29:16.812Z,100078.44
2023-05-16T17:32:02.164Z,100082.70
2023-05-16T17:34:32.965Z,100084.67
2023-05-16T17:37:06.570Z,100085.55
2023-05-16T17:39:35.078Z,100088.05
2023-05-16T17:42:05.133Z,100090.70
2023-05-16T17:44:32.629Z,100095.69
2023-05-16T17:46:59.780Z,100095.83
2023-05-16T17:49:29.999Z,100095.80
2023-05-16T17:51:57.912Z,100090.98
2023-05-16T17:54:26.802Z,100089.52
2023-05-16T17:56:55.726Z,100090.58
2023-05-16T17:59:22.854Z,100091.08
2023-05-16T18:01:49.951Z,100089.29
2023-05-16T18:04:19.347Z,100091.74
2023-05-16T18:06:48.001Z,100096.18
2023-05-16T18:09:15.137Z,100101.14
2023-05-16T18:11:42.234Z,100103.61
2023-05-16T18:14:09.735Z,100110.35
2023-05-16T18:16:36.811Z,100108.36
2023-05-16T18:19:05.108Z,100108.00
2023-05-16T18:22:32.315Z,100108.14
2023-05-16T18:24:57.262Z,100108.83
2023-05-16T18:27:24.324Z,100103.65
2023-05-16T18:29:51.398Z,100103.11
2023-05-16T18:32:18.587Z,100107.75
2023-05-16T18:34:45.533Z,100112.38
2023-05-16T18:37:12.789Z,100113.08
2023-05-16T18:39:41.369Z,100109.67
2023-05-16T18:42:08.634Z,100110.89
2023-05-16T18:44:36.726Z,100114.09
2023-05-16T18:47:03.844Z,100111.76
2023-05-16T18:53:47.338Z,100109.04
2023-05-16T19:00:47.663Z,100107.21
2023-05-16T19:11:14.546Z,100111.60
2023-05-16T19:14:39.779Z,100108.75
2023-05-16T19:17:06.888Z,100114.82
2023-05-16T19:23:31.480Z,100110.88
2023-05-16T19:26:24.561Z,100113.20
2023-05-16T19:29:12.364Z,100112.30
2023-05-16T19:31:50.685Z,100113.86
2023-05-16T19:34:20.126Z,100113.50
2023-05-16T19:36:48.064Z,100115.98
2023-05-16T19:39:18.495Z,100114.53
2023-05-16T19:42:29.749Z,100114.86
2023-05-16T19:48:48.343Z,100117.82
2023-05-16T19:53:17.216Z,100119.23
2023-05-16T19:55:41.680Z,100122.98
2023-05-16T19:58:08.736Z,100124.75
2023-05-16T20:00:35.772Z,100128.50
2023-05-16T20:03:02.979Z,100129.05
2023-05-16T20:06:03.857Z,100127.61
2023-05-16T20:09:42.163Z,100127.59
2023-05-16T20:13:10.957Z,100126.11
2023-05-16T20:34:07.414Z,100122.27
2023-05-16T20:40:00.110Z,100122.65
2023-05-16T20:42:42.248Z,100121.02
2023-05-16T20:45:09.889Z,100122.23
2023-05-16T20:47:38.183Z,100124.54
2023-05-16T20:50:10.096Z,100125.42
2023-05-16T20:52:37.213Z,100125.75
2023-05-16T20:55:04.727Z,100128.05
2023-05-16T20:57:31.774Z,100132.13
2023-05-16T20:59:59.055Z,100132.64
2023-05-16T21:02:26.108Z,100137.82
2023-05-16T21:04:53.270Z,100137.62
2023-05-16T21:07:21.707Z,100137.92
2023-05-16T21:09:48.776Z,100140.05
2023-05-16T21:12:15.844Z,100138.25
2023-05-16T21:14:43.802Z,100140.55
2023-05-16T21:17:10.859Z,100141.96
2023-05-16T21:19:38.513Z,100140.52
2023-05-16T21:22:05.559Z,100137.64
2023-05-16T21:24:35.251Z,100142.40
2023-05-16T21:27:03.766Z,100141.72
2023-05-16T21:29:30.810Z,100139.08
2023-05-16T21:31:58.329Z,100141.02
2023-05-16T21:34:25.519Z,100145.29
2023-05-16T21:36:53.440Z,100142.27
2023-05-16T21:39:20.509Z,100142.44
2023-05-16T21:41:47.629Z,100142.98
2023-05-16T21:44:16.814Z,100137.41
2023-05-16T21:46:44.452Z,100134.50
2023-05-16T21:49:11.597Z,100140.55
2023-05-16T21:51:39.038Z,100143.56
2023-05-16T21:54:06.231Z,100144.09
2023-05-16T21:56:33.283Z,100142.14
2023-05-16T21:59:00.711Z,100141.46
2023-05-16T22:01:29.023Z,100142.35
2023-05-16T22:03:57.112Z,100142.29
2023-05-16T22:06:27.493Z,100144.73
2023-05-16T22:08:54.729Z,100145.54
2023-05-16T22:11:21.966Z,100148.31
2023-05-16T22:13:50.574Z,100149.54
2023-05-16T22:16:18.076Z,100147.95
2023-05-16T22:18:45.451Z,100144.06
2023-05-16T22:21:12.823Z,100142.31
2023-05-16T22:23:40.074Z,100141.59
2023-05-16T22:26:07.219Z,100140.04
2023-05-16T22:28:34.187Z,100142.86
2023-05-16T22:31:01.325Z,100143.38
2023-05-16T22:33:28.499Z,100146.23
2023-05-16T22:35:55.784Z,100142.69
2023-05-16T22:38:22.737Z,100144.28
2023-05-16T22:40:49.754Z,100143.36
2023-05-16T22:43:16.815Z,100140.13
2023-05-16T22:45:43.856Z,100143.98
2023-05-16T22:48:10.960Z,100143.54
2023-05-16T22:50:38.122Z,100140.51
2023-05-16T22:53:05.157Z,100143.85
2023-05-16T22:55:33.538Z,100144.70
2023-05-16T22:58:00.652Z,100144.88
2023-05-16T23:00:27.760Z,100145.75
2023-05-16T23:02:54.860Z,100145.35
2023-05-16T23:05:22.049Z,100149.04
2023-05-16T23:07:49.083Z,100145.83
2023-05-16T23:10:16.206Z,100145.42
2023-05-16T23:12:43.444Z,100150.35
2023-05-16T23:15:11.002Z,100149.98
2023-05-16T23:17:38.312Z,100146.80
2023-05-16T23:20:07.093Z,100146.80
2023-05-16T23:22:34.175Z,100145.52
2023-05-16T23:25:01.237Z,100145.64
2023-05-16T23:27:28.387Z,100144.29
2023-05-16T23:29:55.418Z,100142.39
2023-05-16T23:32:23.086Z,100142.11
2023-05-16T23:34:50.048Z,100140.48
2023-05-16T23:37:17.002Z,100141.64
2023-05-16T23:39:43.989Z,100143.64
2023-05-16T23:42:11.103Z,100143.23
2023-05-16T23:44:41.417Z,100143.02
2023-05-16T23:47:08.566Z,100145.48
2023-05-16T23:49:35.669Z,100145.97
2023-05-16T23:52:05.536Z,100143.78
2023-05-16T23:54:33.822Z,100139.44
2023-05-16T23:57:00.929Z,100135.77
2023-05-16T23:59:28.066Z,100137.95
